createdAt,value
2022-08-11T00:01:53.232Z,101996.03
2022-08-11T00:04:23.726Z,101999.31
2022-08-11T00:06:52.062Z,102007.00
2022-08-11T00:09:21.436Z,102005.72
2022-08-11T00:11:58.823Z,102003.94
2022-08-11T00:14:36.815Z,102005.31
2022-08-11T00:17:10.757Z,102006.03
2022-08-11T00:20:12.026Z,102007.22
2022-08-11T00:22:28.346Z,102003.19
2022-08-11T00:25:00.020Z,102008.56
2022-08-11T00:27:36.546Z,101998.75
2022-08-11T00:30:05.597Z,102001.81
2022-08-11T00:32:32.580Z,102002.16
2022-08-11T00:35:55.701Z,102000.31
2022-08-11T00:37:50.374Z,102004.13
2022-08-11T00:40:34.553Z,102001.91
2022-08-11T00:43:21.348Z,101996.97
2022-08-11T00:46:14.833Z,102002.00
2022-08-11T00:48:50.291Z,101996.81
2022-08-11T00:52:02.102Z,101999.88
2022-08-11T00:54:59.965Z,101992.47
2022-08-11T00:57:45.151Z,102006.34
2022-08-11T01:00:22.654Z,101999.94
2022-08-11T01:03:18.610Z,102002.56
2022-08-11T01:06:17.357Z,102007.16
2022-08-11T01:09:23.003Z,101999.16
2022-08-11T01:12:14.373Z,102002.44
2022-08-11T01:15:20.508Z,102004.25
2022-08-11T01:18:08.707Z,102008.81
2022-08-11T01:21:05.931Z,102003.16
2022-08-11T01:23:59.944Z,101999.75
2022-08-11T01:26:58.103Z,102005.44
2022-08-11T01:29:55.515Z,102004.38
2022-08-11T01:32:59.208Z,102011.84
2022-08-11T01:35:44.561Z,102004.28
2022-08-11T01:38:45.483Z,102006.72
2022-08-11T01:41:50.964Z,102007.13
2022-08-11T01:44:42.367Z,102010.81
2022-08-11T01:47:54.318Z,102001.88
2022-08-11T01:50:37.144Z,102010.44
2022-08-11T01:53:12.691Z,102009.16
2022-08-11T01:56:04.799Z,102000.41
2022-08-11T01:58:50.100Z,102000.78
2022-08-11T02:01:41.196Z,102001.19
2022-08-11T02:04:25.786Z,101999.78
2022-08-11T02:07:10.265Z,102000.66
2022-08-11T02:10:00.717Z,102002.38
2022-08-11T02:12:51.182Z,102000.16
2022-08-11T02:15:28.364Z,101997.00
2022-08-11T02:18:18.400Z,102002.03
2022-08-11T02:21:27.170Z,102001.25
2022-08-11T02:24:08.079Z,102005.53
2022-08-11T02:26:50.128Z,102007.09
2022-08-11T02:29:32.441Z,102003.97
2022-08-11T02:32:30.648Z,101998.34
2022-08-11T02:35:28.067Z,101998.66
2022-08-11T02:38:11.542Z,101993.59
2022-08-11T02:41:31.163Z,101988.88
2022-08-11T02:44:16.365Z,101993.47
2022-08-11T02:47:06.959Z,101990.88
2022-08-11T02:50:06.278Z,101981.41
2022-08-11T02:52:59.093Z,101983.44
2022-08-11T02:55:58.360Z,101984.56
2022-08-11T02:58:42.115Z,101984.31
2022-08-11T03:01:28.360Z,101988.34
2022-08-11T03:04:05.609Z,101992.88
2022-08-11T03:06:58.372Z,101988.09
2022-08-11T03:09:54.219Z,101994.63
2022-08-11T03:12:53.142Z,101992.38
2022-08-11T03:15:46.082Z,101993.53
2022-08-11T03:18:27.441Z,101992.75
2022-08-11T03:21:06.171Z,101996.78
2022-08-11T03:23:58.439Z,101997.41
2022-08-11T03:27:03.493Z,101990.69
2022-08-11T03:29:37.622Z,102002.00
2022-08-11T03:32:29.863Z,101997.50
2022-08-11T03:35:01.375Z,101991.88
2022-08-11T03:37:51.674Z,101994.47
2022-08-11T03:40:59.406Z,101991.13
2022-08-11T03:43:58.337Z,101990.88
2022-08-11T03:46:46.794Z,101997.38
2022-08-11T03:50:02.371Z,102002.75
2022-08-11T03:52:53.575Z,102000.50
2022-08-11T03:55:27.259Z,102000.81
2022-08-11T03:58:15.848Z,102001.38
2022-08-11T04:01:20.173Z,102006.75
2022-08-11T04:04:15.118Z,102001.13
2022-08-11T04:07:17.672Z,102000.56
2022-08-11T04:10:12.510Z,101994.66
2022-08-11T04:13:13.004Z,101996.09
2022-08-11T04:16:11.928Z,101998.66
2022-08-11T04:19:16.711Z,101996.09
2022-08-11T04:21:57.305Z,101994.38
2022-08-11T04:24:49.739Z,102000.88
2022-08-11T04:27:54.214Z,102000.00
2022-08-11T04:30:57.928Z,101998.91
2022-08-11T04:33:59.713Z,102005.38
2022-08-11T04:37:17.405Z,102000.28
2022-08-11T04:40:12.203Z,102007.03
2022-08-11T04:43:21.315Z,102009.53
2022-08-11T04:45:53.364Z,102005.59
2022-08-11T04:49:07.482Z,102008.63
2022-08-11T04:52:37.941Z,102000.75
2022-08-11T04:55:44.741Z,101998.41
2022-08-11T04:58:51.770Z,102006.91
2022-08-11T05:01:55.458Z,102006.00
2022-08-11T05:05:10.686Z,102006.19
2022-08-11T05:07:55.304Z,102010.66
2022-08-11T05:10:48.315Z,102012.00
2022-08-11T05:13:49.112Z,102014.97
2022-08-11T05:16:40.405Z,102012.38
2022-08-11T05:19:25.598Z,102006.63
2022-08-11T05:22:14.913Z,102009.31
2022-08-11T05:25:04.630Z,102015.59
2022-08-11T05:27:59.179Z,102010.25
2022-08-11T05:30:47.315Z,102013.06
2022-08-11T05:33:41.869Z,102019.63
2022-08-11T05:36:27.927Z,102026.16
2022-08-11T05:39:36.444Z,102013.09
2022-08-11T05:42:30.328Z,102025.47
2022-08-11T05:46:02.461Z,102021.38
2022-08-11T05:48:37.362Z,102021.94
2022-08-11T05:51:30.597Z,102026.72
2022-08-11T05:54:28.120Z,102027.84
2022-08-11T05:56:59.554Z,102019.78
2022-08-11T05:59:28.419Z,102021.81
2022-08-11T06:02:01.302Z,102029.31
2022-08-11T06:04:29.119Z,102028.91
2022-08-11T06:07:01.544Z,102022.47
2022-08-11T06:09:33.803Z,102031.06
2022-08-11T06:12:04.509Z,102025.19
2022-08-11T06:14:32.736Z,102027.56
2022-08-11T06:17:02.798Z,102025.69
2022-08-11T06:19:42.613Z,102030.63
2022-08-11T06:22:11.936Z,102029.91
2022-08-11T06:24:41.733Z,102026.28
2022-08-11T06:27:12.685Z,102027.91
2022-08-11T06:29:54.441Z,102031.09
2022-08-11T06:32:44.695Z,102027.16
2022-08-11T06:35:26.652Z,102038.19
2022-08-11T06:37:59.229Z,102035.94
2022-08-11T06:41:06.565Z,102038.72
2022-08-11T06:43:55.914Z,102044.28
2022-08-11T06:46:37.188Z,102039.88
2022-08-11T06:49:04.165Z,102041.97
2022-08-11T06:51:32.479Z,102045.84
2022-08-11T06:54:04.514Z,102038.53
2022-08-11T06:57:29.858Z,102036.88
2022-08-11T07:00:04.381Z,102030.88
2022-08-11T07:02:34.426Z,102027.91
2022-08-11T07:05:14.995Z,102030.03
2022-08-11T07:08:49.909Z,102025.34
2022-08-11T07:11:57.561Z,102021.31
2022-08-11T07:14:45.501Z,102018.84
2022-08-11T07:17:17.647Z,102023.13
2022-08-11T07:20:10.034Z,102020.59
2022-08-11T07:22:55.635Z,102017.91
2022-08-11T07:25:43.366Z,102017.03
2022-08-11T07:28:36.324Z,102024.25
2022-08-11T07:31:14.193Z,102014.91
2022-08-11T07:34:07.377Z,102012.88
2022-08-11T07:36:42.758Z,102012.44
2022-08-11T07:39:17.614Z,102017.84
2022-08-11T07:41:45.654Z,102011.53
2022-08-11T07:44:13.678Z,102014.47
2022-08-11T07:47:01.413Z,102016.56
2022-08-11T07:49:49.560Z,102018.16
2022-08-11T07:52:35.270Z,102016.34
2022-08-11T07:55:05.366Z,102013.47
2022-08-11T07:58:16.163Z,102016.88
2022-08-11T08:01:01.696Z,102016.16
2022-08-11T08:03:54.368Z,102024.66
2022-08-11T08:06:41.569Z,102019.78
2022-08-11T08:09:27.828Z,102021.09
2022-08-11T08:12:14.073Z,102014.06
2022-08-11T08:15:01.264Z,102009.16
2022-08-11T08:18:09.106Z,102009.75
2022-08-11T08:20:46.044Z,102012.41
2022-08-11T08:23:13.278Z,102009.66
2022-08-11T08:25:43.141Z,102012.03
2022-08-11T08:28:14.698Z,102005.22
2022-08-11T08:30:50.627Z,102004.75
2022-08-11T08:33:20.743Z,101998.38
2022-08-11T08:35:54.466Z,102000.34
2022-08-11T08:38:23.195Z,101991.50
2022-08-11T08:40:55.784Z,102000.94
2022-08-11T08:43:24.010Z,101994.34
2022-08-11T08:45:55.699Z,101997.56
2022-08-11T08:48:25.785Z,101992.09
2022-08-11T08:51:19.256Z,101992.09
2022-08-11T08:53:53.281Z,101990.31
2022-08-11T08:56:28.217Z,101989.31
2022-08-11T08:58:57.931Z,101995.03
2022-08-11T09:01:29.317Z,101996.44
2022-08-11T09:04:07.076Z,101992.16
2022-08-11T09:06:40.078Z,101985.59
2022-08-11T09:09:12.323Z,101984.50
2022-08-11T09:11:53.563Z,101983.34
2022-08-11T09:14:23.291Z,101979.56
2022-08-11T09:16:51.336Z,101981.00
2022-08-11T09:19:20.263Z,101981.13
2022-08-11T09:22:11.546Z,101981.38
2022-08-11T09:24:58.418Z,101978.41
2022-08-11T09:27:26.471Z,101973.41
2022-08-11T09:29:54.019Z,101969.03
2022-08-11T09:32:23.979Z,101974.59
2022-08-11T09:34:52.182Z,101974.97
2022-08-11T09:37:55.582Z,101971.69
2022-08-11T09:40:30.742Z,101967.19
2022-08-11T09:43:18.108Z,101968.06
2022-08-11T09:45:51.323Z,101967.22
2022-08-11T09:48:19.582Z,101961.06
2022-08-11T09:50:49.862Z,101962.06
2022-08-11T09:53:36.756Z,101954.75
2022-08-11T09:56:25.261Z,101952.19
2022-08-11T09:58:52.196Z,101948.97
2022-08-11T10:01:29.689Z,101945.16
2022-08-11T10:04:00.982Z,101939.13
2022-08-11T10:06:48.538Z,101944.03
2022-08-11T10:09:21.895Z,101932.69
2022-08-11T10:11:58.192Z,101940.69
2022-08-11T10:14:45.173Z,101934.69
2022-08-11T10:17:14.610Z,101932.47
2022-08-11T10:19:43.415Z,101936.91
2022-08-11T10:22:28.559Z,101931.66
2022-08-11T10:25:19.846Z,101930.34
2022-08-11T10:28:17.656Z,101925.66
2022-08-11T10:31:06.820Z,101925.84
2022-08-11T10:33:59.655Z,101921.91
2022-08-11T10:36:44.256Z,101918.09
2022-08-11T10:39:17.198Z,101911.41
2022-08-11T10:42:25.776Z,101912.63
2022-08-11T10:45:25.261Z,101913.09
2022-08-11T10:47:55.063Z,101904.56
2022-08-11T10:50:40.895Z,101903.63
2022-08-11T10:53:26.332Z,101895.69
2022-08-11T10:56:11.938Z,101888.25
2022-08-11T10:58:51.282Z,101887.78
2022-08-11T11:01:31.869Z,101898.34
2022-08-11T11:04:01.830Z,101894.25
2022-08-11T11:06:44.720Z,101896.81
2022-08-11T11:09:32.418Z,101884.03
2022-08-11T11:12:25.742Z,101885.53
2022-08-11T11:15:17.504Z,101884.59
2022-08-11T11:18:07.510Z,101880.97
2022-08-11T11:20:45.028Z,101880.22
2022-08-11T11:23:20.013Z,101879.06
2022-08-11T11:26:10.613Z,101860.91
2022-08-11T11:28:54.645Z,101875.25
2022-08-11T11:31:45.869Z,101865.50
2022-08-11T11:34:52.821Z,101862.47
2022-08-11T11:37:20.889Z,101860.66
2022-08-11T11:39:47.969Z,101855.25
2022-08-11T11:42:16.514Z,101863.94
2022-08-11T11:44:44.922Z,101865.34
2022-08-11T11:47:12.666Z,101861.97
2022-08-11T11:49:43.772Z,101859.56
2022-08-11T11:52:17.163Z,101847.28
2022-08-11T11:54:43.923Z,101851.38
2022-08-11T11:57:33.331Z,101852.03
2022-08-11T12:00:18.567Z,101846.38
2022-08-11T12:02:45.321Z,101846.72
2022-08-11T12:05:14.801Z,101833.97
2022-08-11T12:08:12.445Z,101837.81
2022-08-11T12:10:43.380Z,101832.19
2022-08-11T12:13:28.701Z,101839.69
2022-08-11T12:16:31.638Z,101828.47
2022-08-11T12:18:43.650Z,101824.72
2022-08-11T12:21:10.595Z,101820.84
2022-08-11T12:24:02.277Z,101819.50
2022-08-11T12:27:02.782Z,101814.72
2022-08-11T12:29:36.506Z,101811.25
2022-08-11T12:32:08.679Z,101794.59
2022-08-11T12:34:35.486Z,101817.53
2022-08-11T12:37:05.666Z,101810.91
2022-08-11T12:40:16.867Z,101808.84
2022-08-11T12:43:03.897Z,101807.19
2022-08-11T12:45:31.573Z,101804.06
2022-08-11T12:48:59.298Z,101802.91
2022-08-11T12:51:30.025Z,101803.69
2022-08-11T12:54:12.823Z,101800.13
2022-08-11T12:57:02.219Z,101800.09
2022-08-11T12:59:48.255Z,101790.22
2022-08-11T13:02:43.919Z,101787.22
2022-08-11T13:05:13.659Z,101782.59
2022-08-11T13:07:50.833Z,101782.31
2022-08-11T13:10:39.460Z,101779.03
2022-08-11T13:13:55.406Z,101772.41
2022-08-11T13:15:55.811Z,101767.84
2022-08-11T13:18:24.923Z,101767.44
2022-08-11T13:20:55.868Z,101760.44
2022-08-11T13:23:24.586Z,101760.81
2022-08-11T13:25:54.072Z,101756.28
2022-08-11T13:28:22.416Z,101758.34
2022-08-11T13:31:10.779Z,101753.38
2022-08-11T13:33:49.843Z,101761.22
2022-08-11T13:36:20.539Z,101751.72
2022-08-11T13:38:50.173Z,101750.47
2022-08-11T13:41:37.043Z,101741.34
2022-08-11T13:44:05.380Z,101740.06
2022-08-11T13:46:32.551Z,101733.06
2022-08-11T13:49:01.002Z,101735.97
2022-08-11T13:51:34.337Z,101731.34
2022-08-11T13:54:10.980Z,101734.63
2022-08-11T13:56:44.097Z,101739.69
2022-08-11T13:59:10.729Z,101728.09
2022-08-11T14:02:19.352Z,101724.75
2022-08-11T14:04:40.273Z,101730.16
2022-08-11T14:07:09.072Z,101732.25
2022-08-11T14:09:39.480Z,101726.44
2022-08-11T14:12:31.084Z,101731.00
2022-08-11T14:15:08.568Z,101728.09
2022-08-11T14:17:48.234Z,101729.28
2022-08-11T14:20:38.213Z,101721.81
2022-08-11T14:23:04.296Z,101714.00
2022-08-11T14:25:59.464Z,101702.34
2022-08-11T14:28:30.905Z,101708.16
2022-08-11T14:31:02.721Z,101706.53
2022-08-11T14:34:00.947Z,101704.03
2022-08-11T14:36:20.526Z,101702.34
2022-08-11T14:38:48.418Z,101696.16
2022-08-11T14:41:34.529Z,101697.41
2022-08-11T14:44:20.218Z,101691.22
2022-08-11T14:47:05.836Z,101700.72
2022-08-11T14:50:05.056Z,101685.88
2022-08-11T14:52:43.228Z,101682.53
2022-08-11T14:55:29.453Z,101691.25
2022-08-11T14:57:57.023Z,101691.59
2022-08-11T15:00:24.801Z,101682.88
2022-08-11T15:03:10.685Z,101681.69
2022-08-11T15:05:59.969Z,101673.41
2022-08-11T15:08:53.567Z,101679.56
2022-08-11T15:11:41.992Z,101669.22
2022-08-11T15:14:11.202Z,101670.06
2022-08-11T15:17:00.528Z,101665.94
2022-08-11T15:19:37.494Z,101668.75
2022-08-11T15:22:28.161Z,101663.88
2022-08-11T15:24:55.697Z,101662.66
2022-08-11T15:27:42.647Z,101664.28
2022-08-11T15:30:33.665Z,101659.69
2022-08-11T15:33:27.902Z,101657.13
2022-08-11T15:36:15.296Z,101648.47
2022-08-11T15:38:55.325Z,101647.69
2022-08-11T15:41:42.317Z,101655.47
2022-08-11T15:44:58.860Z,101655.81
2022-08-11T15:47:22.939Z,101660.13
2022-08-11T15:50:11.003Z,101657.94
2022-08-11T15:52:48.134Z,101650.06
2022-08-11T15:55:16.450Z,101648.88
2022-08-11T15:58:03.136Z,101646.81
2022-08-11T16:00:48.456Z,101649.06
2022-08-11T16:04:05.854Z,101650.28
2022-08-11T16:06:27.225Z,101643.25
2022-08-11T16:08:58.120Z,101641.50
2022-08-11T16:11:26.570Z,101639.00
2022-08-11T16:14:12.814Z,101636.00
2022-08-11T16:16:40.455Z,101628.78
2022-08-11T16:19:10.450Z,101641.50
2022-08-11T16:21:40.088Z,101632.09
2022-08-11T16:24:08.281Z,101629.13
2022-08-11T16:27:10.520Z,101631.50
2022-08-11T16:29:26.616Z,101630.44
2022-08-11T16:32:14.415Z,101629.59
2022-08-11T16:35:02.421Z,101630.34
2022-08-11T16:37:49.603Z,101630.19
2022-08-11T16:40:17.271Z,101629.03
2022-08-11T16:43:10.717Z,101625.75
2022-08-11T16:45:59.230Z,101625.69
2022-08-11T16:48:33.086Z,101629.63
2022-08-11T16:51:05.925Z,101625.94
2022-08-11T16:53:54.944Z,101632.84
2022-08-11T16:56:23.208Z,101625.84
2022-08-11T16:59:15.171Z,101625.94
2022-08-11T17:01:45.160Z,101628.91
2022-08-11T17:04:54.640Z,101627.69
2022-08-11T17:07:43.180Z,101628.72
2022-08-11T17:10:50.421Z,101625.78
2022-08-11T17:13:23.681Z,101624.03
2022-08-11T17:16:07.107Z,101620.03
2022-08-11T17:18:40.181Z,101615.06
2022-08-11T17:21:12.683Z,101625.31
2022-08-11T17:23:52.551Z,101618.09
2022-08-11T17:26:23.008Z,101625.91
2022-08-11T17:28:52.625Z,101629.56
2022-08-11T17:31:40.155Z,101618.06
2022-08-11T17:34:26.999Z,101620.78
2022-08-11T17:36:55.112Z,101628.63
2022-08-11T17:39:25.239Z,101630.19
2022-08-11T17:42:11.474Z,101625.94
2022-08-11T17:44:58.421Z,101625.25
2022-08-11T17:47:44.447Z,101634.91
2022-08-11T17:50:17.848Z,101632.31
2022-08-11T17:53:05.449Z,101626.06
2022-08-11T17:55:53.569Z,101628.50
2022-08-11T17:58:40.334Z,101634.69
2022-08-11T18:01:10.873Z,101639.59
2022-08-11T18:03:41.458Z,101637.44
2022-08-11T18:06:12.903Z,101636.31
2022-08-11T18:09:03.195Z,101639.69
2022-08-11T18:12:07.426Z,101639.44
2022-08-11T18:14:58.977Z,101633.69
2022-08-11T18:17:43.816Z,101643.13
2022-08-11T18:20:29.152Z,101638.13
2022-08-11T18:23:16.367Z,101650.31
2022-08-11T18:26:06.459Z,101648.06
2022-08-11T18:29:01.579Z,101640.22
2022-08-11T18:31:51.971Z,101654.78
2022-08-11T18:34:42.875Z,101655.47
2022-08-11T18:37:46.070Z,101656.50
2022-08-11T18:40:38.159Z,101658.31
2022-08-11T18:43:27.895Z,101665.34
2022-08-11T18:46:23.342Z,101662.56
2022-08-11T18:49:16.493Z,101662.28
2022-08-11T18:52:06.360Z,101668.09
2022-08-11T18:54:55.124Z,101666.88
2022-08-11T18:57:49.473Z,101673.09
2022-08-11T19:00:40.687Z,101673.13
2022-08-11T19:03:26.892Z,101673.72
2022-08-11T19:06:40.032Z,101670.97
2022-08-11T19:09:21.371Z,101673.19
2022-08-11T19:12:08.045Z,101675.31
2022-08-11T19:14:55.285Z,101676.16
2022-08-11T19:17:45.950Z,101680.31
2022-08-11T19:20:39.467Z,101678.06
2022-08-11T19:23:27.097Z,101683.56
2022-08-11T19:26:12.755Z,101683.97
2022-08-11T19:29:01.267Z,101687.75
2022-08-11T19:31:47.980Z,101688.25
2022-08-11T19:34:37.119Z,101681.28
2022-08-11T19:37:25.311Z,101683.06
2022-08-11T19:40:24.919Z,101686.91
2022-08-11T19:43:11.287Z,101695.28
2022-08-11T19:46:11.274Z,101683.22
2022-08-11T19:48:57.206Z,101685.97
2022-08-11T19:51:43.068Z,101686.94
2022-08-11T19:54:29.247Z,101680.03
2022-08-11T19:57:16.095Z,101684.56
2022-08-11T20:00:02.090Z,101677.53
2022-08-11T20:02:49.476Z,101681.13
2022-08-11T20:05:34.842Z,101675.47
2022-08-11T20:08:20.732Z,101682.16
2022-08-11T20:11:06.877Z,101679.84
2022-08-11T20:13:53.515Z,101684.34
2022-08-11T20:16:41.483Z,101680.88
2022-08-11T20:19:55.333Z,101683.47
2022-08-11T20:22:36.659Z,101687.13
2022-08-11T20:25:23.823Z,101692.06
2022-08-11T20:28:12.147Z,101690.47
2022-08-11T20:30:58.406Z,101691.25
2022-08-11T20:33:43.887Z,101700.22
2022-08-11T20:36:30.316Z,101699.81
2022-08-11T20:39:17.079Z,101699.03
2022-08-11T20:42:04.030Z,101703.75
2022-08-11T20:44:51.763Z,101704.66
2022-08-11T20:47:59.491Z,101705.06
2022-08-11T20:50:45.938Z,101709.69
2022-08-11T20:53:36.742Z,101706.88
2022-08-11T20:56:28.541Z,101716.78
2022-08-11T20:59:19.057Z,101720.72
2022-08-11T21:02:09.467Z,101707.88
2022-08-11T21:04:56.970Z,101717.44
2022-08-11T21:07:50.273Z,101722.81
2022-08-11T21:10:46.795Z,101724.31
2022-08-11T21:13:33.202Z,101725.00
2022-08-11T21:16:26.037Z,101716.63
2022-08-11T21:19:17.852Z,101729.06
2022-08-11T21:22:05.105Z,101726.53
2022-08-11T21:24:51.875Z,101736.44
2022-08-11T21:27:39.534Z,101735.25
2022-08-11T21:30:25.422Z,101737.81
2022-08-11T21:33:11.619Z,101739.47
2022-08-11T21:35:56.792Z,101738.13
2022-08-11T21:38:42.075Z,101737.44
2022-08-11T21:41:28.982Z,101738.28
2022-08-11T21:44:16.697Z,101740.06
2022-08-11T21:47:03.147Z,101745.56
2022-08-11T21:49:49.567Z,101749.25
2022-08-11T21:52:35.138Z,101755.59
2022-08-11T21:55:21.444Z,101759.91
2022-08-11T21:58:07.467Z,101745.84
2022-08-11T22:00:53.232Z,101750.69
2022-08-11T22:03:41.107Z,101745.13
2022-08-11T22:06:36.069Z,101748.97
2022-08-11T22:09:21.159Z,101749.31
2022-08-11T22:12:33.602Z,101748.06
2022-08-11T22:15:11.819Z,101744.16
2022-08-11T22:17:58.129Z,101743.47
2022-08-11T22:20:45.546Z,101740.63
2022-08-11T22:23:35.922Z,101740.81
2022-08-11T22:26:22.370Z,101733.41
2022-08-11T22:29:08.426Z,101746.41
2022-08-11T22:31:56.047Z,101740.19
2022-08-11T22:34:52.795Z,101746.09
2022-08-11T22:37:41.151Z,101735.69
2022-08-11T22:40:28.569Z,101732.94
2022-08-11T22:43:13.693Z,101741.28
2022-08-11T22:45:58.854Z,101742.56
2022-08-11T22:48:48.440Z,101743.78
2022-08-11T22:51:36.534Z,101739.94
2022-08-11T22:54:22.715Z,101742.81
2022-08-11T22:57:08.368Z,101751.22
2022-08-11T22:59:55.272Z,101749.03
2022-08-11T23:02:41.198Z,101748.50
2022-08-11T23:05:27.653Z,101745.47
2022-08-11T23:08:15.305Z,101745.94
2022-08-11T23:11:02.400Z,101749.09
2022-08-11T23:13:51.805Z,101749.38
2022-08-11T23:16:38.267Z,101754.00
2022-08-11T23:20:06.669Z,101747.59
2022-08-11T23:22:37.742Z,101753.75
2022-08-11T23:25:34.642Z,101753.16
2022-08-11T23:28:20.994Z,101749.56
2022-08-11T23:31:09.695Z,101742.00
2022-08-11T23:33:58.538Z,101745.31
2022-08-11T23:36:47.382Z,101751.16
2022-08-11T23:39:34.177Z,101754.47
2022-08-11T23:42:20.115Z,101765.81
2022-08-11T23:45:05.590Z,101763.88
2022-08-11T23:47:56.369Z,101762.81
2022-08-11T23:50:42.099Z,101760.00
2022-08-11T23:53:28.063Z,101767.22
2022-08-11T23:56:13.794Z,101767.31
2022-08-11T23:58:59.693Z,101765.66
